This is the latest recevied weather packets stored in our database for station/object SR6WXP. If no packets are shown the sender has not sent any weather packets the latest 1 day(s).
| Time | Temp. | Humidity | Pressure | Rain* | Wind** | Luminosity | Snow |
|---|---|---|---|---|---|---|---|
| 1836274739 | 14.44° C | 33% | 999.4 hPa | - | 0.89 m/s, 115° | - | - |
| 1836274498 | 14.44° C | 33% | 999.4 hPa | - | 1.34 m/s, 120° | - | - |
| 1836274480 | 14.44° C | 33% | 999.4 hPa | - | 1.34 m/s, 115° | - | - |
| 1836274257 | 14.44° C | 33% | 999.5 hPa | - | 0.89 m/s, 123° | - | - |
| 1836274230 | 14.44° C | 33% | 999.4 hPa | - | 0.89 m/s, 129° | - | - |
| 1836274017 | 14.44° C | 33% | 999.5 hPa | - | 0.89 m/s, 118° | - | - |
| 1778014585 | 20.56° C | 48% | 982.6 hPa | - | 3.58 m/s, 159° | - | - |
| 1778014345 | 20.56° C | 48% | 982.6 hPa | - | 2.68 m/s, 154° | - | - |
| 1778014105 | 20.56° C | 48% | 982.6 hPa | - | 4.02 m/s, 167° | - | - |
| 1778013865 | 20.56° C | 48% | 982.6 hPa | - | 4.47 m/s, 151° | - | - |
| 1778013625 | 20.56° C | 48% | 982.6 hPa | - | 3.58 m/s, 155° | - | - |
| 1778013144 | 20.56° C | 47% | 982.6 hPa | - | 2.24 m/s, 150° | - | - |
| 1778012904 | 20.56° C | 47% | 982.5 hPa | - | 2.24 m/s, 148° | - | - |
| 1778012661 | 20.56° C | 47% | 982.5 hPa | - | 2.68 m/s, 159° | - | - |
| 1778012421 | 20.56° C | 47% | 982.5 hPa | - | 2.68 m/s, 144° | - | - |
| 1778012180 | 20.56° C | 46% | 982.4 hPa | - | 3.58 m/s, 139° | - | - |
| 1778011939 | 20.56° C | 46% | 982.4 hPa | - | 2.24 m/s, 132° | - | - |
| 1778011699 | 20.56° C | 46% | 982.4 hPa | - | 1.79 m/s, 130° | - | - |
| 1778011452 | 20.56° C | 45% | 982.4 hPa | - | 0.89 m/s, 113° | - | - |
| 1778011211 | 20.56° C | 45% | 982.4 hPa | - | 1.34 m/s, 128° | - | - |
| 1778010968 | 20.56° C | 44% | 982.4 hPa | - | 0.89 m/s, 134° | - | - |
| 1778010727 | 20.56° C | 44% | 982.4 hPa | - | 0.89 m/s, 133° | - | - |
| 1778010488 | 20.56° C | 43% | 982.3 hPa | - | 0.89 m/s, 150° | - | - |
| 1778010248 | 21.11° C | 43% | 982.3 hPa | - | 0.89 m/s, 159° | - | - |
| 1778010008 | 21.11° C | 42% | 982.3 hPa | - | 0.89 m/s, 132° | - | - |
* Rain since midnight (hover to see other rain measurements)
** Current wind speed in m/s (hover to see current wind gust speed)